首页
METAR-TAF:

METAR-TAF

机场 :

卡昂, 法国

纬度: 49-11N, 经度: 000-27W, 海拔: 78米

当前天气观测

该预报发布于43分钟前的01:00 UTC
风速12节,风向西南
温度 14°C
湿度 82%
气压 1020 hPa
能见度10公里或以上
阴天层高于3700英尺

METAR: LFRK 300100Z AUTO 22012KT 9999 OVC037 14/11 Q1020

时间: 02:43 (01:43 UTC)

预报

该预报发布于11小时和43分钟前的14:00 UTC
预报有效从29日的 15点(UTC)到 29日的 24点(UTC)
风速12节,风向西南
能见度10公里或以上
多云层高于2000英尺
短暂存在
从 29日的 15点(UTC)到 29日的 18点(UTC)
能見度: 4000
多云层高于900英尺
雨, 毛毛雨
短暂存在
从 29日的 15点(UTC)到 29日的 24点(UTC)
风速15节,风向西南,有时为25节阵风
几率 30% :
短暂存在
从 29日的 18点(UTC)到 29日的 22点(UTC)
能見度: 5000
多云层高于1300英尺
短暂存在
从 29日的 22点(UTC)到 29日的 24点(UTC)
能見度: 4000
多云层高于900英尺
雨, 毛毛雨

TAF: LFRK 291400Z 2915/2924 23012KT 9999 BKN020 TEMPO 2915/2918 4000 RADZ BKN009 TEMPO 2915/2924 23015G25KT PROB30 TEMPO 2918/2922 5000 RA BKN013 TEMPO 2922/2924 4000 RADZ BKN009

超过4000个机场的气象观测和天气预报(METAR&TAF报告)。

可查询的气象台以黄色和红色小点在地图上表示。

将鼠标移到小点上方,可查看气象台名称。

然后点击查看天气观测和预报。

如需切换地图:点击带黑十字的绿色按钮放大地图;点击带横线的绿色按钮缩小地图;或者点击绿色箭头查看邻近地区的地图。


METAR-TAF: